createdAt,value
2023-02-01T00:00:54.199Z,99.90
2023-02-01T00:03:21.055Z,99.90
2023-02-01T00:05:57.911Z,99.90
2023-02-01T00:08:24.940Z,99.90
2023-02-01T00:10:59.954Z,99.90
2023-02-01T00:13:30.027Z,99.90
2023-02-01T00:16:04.180Z,99.90
2023-02-01T00:18:31.180Z,99.90
2023-02-01T00:20:58.087Z,99.90
2023-02-01T00:23:25.078Z,99.90
2023-02-01T00:25:51.919Z,99.90
2023-02-01T00:28:21.940Z,99.90
2023-02-01T00:30:58.180Z,99.90
2023-02-01T00:33:25.324Z,99.90
2023-02-01T00:35:52.354Z,99.90
2023-02-01T00:38:19.151Z,99.90
2023-02-01T00:40:46.037Z,99.90
2023-02-01T00:43:14.037Z,99.90
2023-02-01T00:45:40.872Z,99.90
2023-02-01T00:48:07.748Z,99.90
2023-02-01T00:50:34.700Z,99.90
2023-02-01T00:53:01.652Z,99.90
2023-02-01T00:55:28.567Z,99.90
2023-02-01T00:57:55.375Z,99.90
2023-02-01T01:00:22.655Z,99.90
2023-02-01T01:02:49.700Z,99.90
2023-02-01T01:05:16.503Z,99.90
2023-02-01T01:07:43.464Z,99.90
2023-02-01T01:10:10.753Z,99.90
2023-02-01T01:12:37.565Z,99.90
2023-02-01T01:15:04.954Z,99.90
2023-02-01T01:17:32.884Z,99.90
2023-02-01T01:20:00.035Z,99.90
2023-02-01T01:22:27.020Z,99.90
2023-02-01T01:24:53.791Z,99.90
2023-02-01T01:27:24.357Z,99.90
2023-02-01T01:29:51.408Z,99.90
2023-02-01T01:32:18.556Z,99.70
2023-02-01T01:34:45.379Z,99.40
2023-02-01T01:37:12.335Z,99.30
2023-02-01T01:39:39.150Z,99.20
2023-02-01T01:42:06.240Z,99.20
2023-02-01T01:44:59.803Z,99.10
2023-02-01T01:47:34.422Z,99.10
2023-02-01T01:50:02.925Z,98.90
2023-02-01T01:52:29.949Z,98.50
2023-02-01T01:54:58.884Z,98.30
2023-02-01T01:57:29.686Z,98.10
2023-02-01T02:00:20.682Z,98.40
2023-02-01T02:02:54.052Z,98.40
2023-02-01T02:05:21.511Z,97.90
2023-02-01T02:07:51.795Z,97.90
2023-02-01T02:10:19.611Z,97.50
2023-02-01T02:12:49.168Z,97.50
2023-02-01T02:15:17.931Z,97.30
2023-02-01T02:18:16.438Z,97.30
2023-02-01T02:21:11.694Z,97.30
2023-02-01T02:23:41.304Z,97.10
2023-02-01T02:26:08.149Z,96.90
2023-02-01T02:28:53.021Z,97.00
2023-02-01T02:31:45.165Z,96.80
2023-02-01T02:34:21.066Z,96.40
2023-02-01T02:37:23.457Z,96.40
2023-02-01T02:40:14.162Z,96.50
2023-02-01T02:43:23.365Z,95.90
2023-02-01T02:46:20.813Z,96.10
2023-02-01T02:48:57.674Z,96.00
2023-02-01T02:52:00.915Z,95.80
2023-02-01T02:54:49.701Z,95.90
2023-02-01T02:57:42.230Z,95.80
2023-02-01T03:00:31.604Z,95.80
2023-02-01T03:03:17.079Z,95.80
2023-02-01T03:05:51.480Z,95.90
2023-02-01T03:08:20.978Z,96.50
2023-02-01T03:11:06.777Z,96.00
2023-02-01T03:13:51.481Z,96.20
2023-02-01T03:16:36.564Z,96.10
2023-02-01T03:19:24.586Z,96.10
2023-02-01T03:22:02.526Z,96.70
2023-02-01T03:24:36.223Z,96.00
2023-02-01T03:27:31.520Z,96.00
2023-02-01T03:30:24.351Z,96.00
2023-02-01T03:33:01.625Z,96.20
2023-02-01T03:35:49.682Z,96.30
2023-02-01T03:38:38.478Z,96.30
2023-02-01T03:41:35.475Z,95.80
2023-02-01T03:44:16.984Z,96.00
2023-02-01T03:46:55.931Z,96.20
2023-02-01T03:49:41.256Z,96.60
2023-02-01T03:52:14.583Z,97.00
2023-02-01T03:54:44.766Z,97.10
2023-02-01T03:57:15.283Z,97.40
2023-02-01T03:59:43.776Z,97.50
2023-02-01T04:02:10.810Z,97.90
2023-02-01T04:04:38.333Z,97.50
2023-02-01T04:07:05.944Z,97.50
2023-02-01T04:09:32.904Z,97.80
2023-02-01T04:11:59.739Z,98.00
2023-02-01T04:14:26.599Z,98.10
2023-02-01T04:16:53.710Z,97.90
2023-02-01T04:19:20.575Z,98.00
2023-02-01T04:21:47.327Z,97.90
2023-02-01T04:24:14.219Z,97.70
2023-02-01T04:26:41.051Z,97.80
2023-02-01T04:29:10.267Z,97.70
2023-02-01T04:31:37.527Z,97.50
2023-02-01T04:34:04.529Z,97.50
2023-02-01T04:36:31.706Z,97.40
2023-02-01T04:38:58.548Z,97.20
2023-02-01T04:41:25.430Z,97.10
2023-02-01T04:43:53.474Z,97.00
2023-02-01T04:46:20.344Z,96.90
2023-02-01T04:48:47.230Z,97.00
2023-02-01T04:51:14.240Z,97.40
2023-02-01T04:53:41.109Z,97.40
2023-02-01T04:56:08.937Z,97.40
2023-02-01T04:58:35.793Z,96.90
2023-02-01T05:01:07.258Z,97.40
2023-02-01T05:03:35.114Z,97.50
2023-02-01T05:06:01.956Z,98.00
2023-02-01T05:08:29.778Z,97.70
2023-02-01T05:10:56.688Z,97.90
2023-02-01T05:13:42.184Z,98.20
2023-02-01T05:16:09.229Z,98.40
2023-02-01T05:18:36.124Z,99.10
2023-02-01T05:21:02.979Z,98.60
2023-02-01T05:23:29.826Z,98.60
2023-02-01T05:26:01.570Z,98.90
2023-02-01T05:28:29.495Z,98.50
2023-02-01T05:30:56.502Z,98.80
2023-02-01T05:33:23.443Z,99.00
2023-02-01T05:35:51.449Z,98.80
2023-02-01T05:38:18.404Z,98.30
2023-02-01T05:40:50.391Z,98.60
2023-02-01T05:43:17.404Z,98.60
2023-02-01T05:45:44.199Z,98.70
2023-02-01T05:48:11.029Z,98.80
2023-02-01T05:50:37.834Z,98.50
2023-02-01T05:53:09.275Z,98.40
2023-02-01T05:55:37.143Z,98.70
2023-02-01T05:58:05.081Z,98.80
2023-02-01T06:00:32.339Z,98.50
2023-02-01T06:02:59.588Z,98.50
2023-02-01T06:05:26.704Z,99.50
2023-02-01T06:07:53.572Z,99.90
2023-02-01T06:10:21.202Z,99.90
2023-02-01T06:12:48.432Z,99.90
2023-02-01T06:15:19.209Z,99.90
2023-02-01T06:17:46.894Z,99.90
2023-02-01T06:20:15.695Z,99.90
2023-02-01T06:22:42.559Z,99.90
2023-02-01T06:25:11.157Z,99.90
2023-02-01T06:27:38.245Z,99.90
2023-02-01T06:30:07.228Z,99.90
2023-02-01T06:32:34.707Z,99.90
2023-02-01T06:35:01.571Z,99.90
2023-02-01T06:37:31.148Z,99.90
2023-02-01T06:39:57.985Z,99.90
2023-02-01T06:42:24.832Z,99.90
2023-02-01T06:44:51.598Z,99.90
2023-02-01T06:47:18.531Z,99.90
2023-02-01T06:49:45.297Z,99.90
2023-02-01T06:52:12.104Z,99.90
2023-02-01T06:54:38.946Z,99.90
2023-02-01T06:57:05.965Z,99.90
2023-02-01T06:59:32.777Z,99.90
2023-02-01T07:01:59.728Z,99.90
2023-02-01T07:04:26.586Z,99.90
2023-02-01T07:06:53.444Z,99.90
2023-02-01T07:09:20.277Z,99.90
2023-02-01T07:11:47.150Z,99.90
2023-02-01T07:14:14.192Z,99.90
2023-02-01T07:16:41.186Z,99.90
2023-02-01T07:19:08.555Z,99.90
2023-02-01T07:21:35.404Z,99.90
2023-02-01T07:24:02.182Z,99.90
2023-02-01T07:26:29.150Z,99.90
2023-02-01T07:28:56.085Z,99.90
2023-02-01T07:31:23.276Z,99.90
2023-02-01T07:33:53.603Z,99.90
2023-02-01T07:36:20.711Z,99.90
2023-02-01T07:38:48.303Z,99.90
2023-02-01T07:41:16.353Z,99.90
2023-02-01T07:43:43.209Z,99.90
2023-02-01T07:46:11.847Z,99.90
2023-02-01T07:48:39.145Z,99.90
2023-02-01T07:51:09.413Z,99.90
2023-02-01T07:53:37.229Z,99.90
2023-02-01T07:56:05.378Z,99.90
2023-02-01T07:58:32.206Z,99.90
2023-02-01T08:01:17.572Z,99.90
2023-02-01T08:03:44.476Z,99.90
2023-02-01T08:06:11.344Z,99.90
2023-02-01T08:08:38.857Z,99.90
2023-02-01T08:11:07.995Z,99.90
2023-02-01T08:13:36.245Z,99.90
2023-02-01T08:16:06.185Z,99.90
2023-02-01T08:18:33.765Z,99.90
2023-02-01T08:21:27.425Z,99.90
2023-02-01T08:23:54.397Z,99.90
2023-02-01T08:26:26.225Z,99.90
2023-02-01T08:28:56.836Z,99.90
2023-02-01T08:31:25.271Z,99.90
2023-02-01T08:33:58.041Z,99.90
2023-02-01T08:36:27.300Z,99.90
2023-02-01T08:38:54.736Z,99.90
2023-02-01T08:41:24.296Z,99.90
2023-02-01T08:43:51.666Z,99.90
2023-02-01T08:46:18.914Z,99.90
2023-02-01T08:48:48.032Z,99.90
2023-02-01T08:51:18.272Z,99.90
2023-02-01T08:53:45.769Z,99.90
2023-02-01T08:56:15.213Z,99.90
2023-02-01T08:58:42.191Z,99.90
2023-02-01T09:01:15.029Z,99.90
2023-02-01T09:03:42.029Z,99.90
2023-02-01T09:06:11.383Z,99.90
2023-02-01T09:08:39.762Z,99.90
2023-02-01T09:11:11.591Z,99.90
2023-02-01T09:13:38.759Z,99.90
2023-02-01T09:16:06.000Z,99.90
2023-02-01T09:18:32.947Z,99.90
2023-02-01T09:20:59.849Z,99.90
2023-02-01T09:23:27.155Z,99.90
2023-02-01T09:25:53.987Z,99.90
2023-02-01T09:28:21.154Z,99.90
2023-02-01T09:30:48.062Z,99.90
2023-02-01T09:33:15.248Z,99.90
2023-02-01T09:35:42.242Z,99.90
2023-02-01T09:38:09.101Z,99.90
2023-02-01T09:40:36.523Z,99.90
2023-02-01T09:43:12.336Z,99.90
2023-02-01T09:46:19.633Z,99.90
2023-02-01T09:48:47.868Z,99.90
2023-02-01T09:51:22.734Z,99.90
2023-02-01T09:54:00.773Z,99.90
2023-02-01T09:56:47.253Z,99.90
2023-02-01T09:59:42.687Z,99.90
2023-02-01T10:02:19.148Z,99.90
2023-02-01T10:04:46.848Z,99.90
2023-02-01T10:07:23.966Z,99.90
2023-02-01T10:09:56.413Z,99.90
2023-02-01T10:12:45.376Z,99.90
2023-02-01T10:15:50.427Z,99.20
2023-02-01T10:18:41.351Z,99.00
2023-02-01T10:21:39.950Z,99.40
2023-02-01T10:24:34.303Z,98.40
2023-02-01T10:27:09.783Z,97.90
2023-02-01T10:29:42.395Z,97.60
2023-02-01T10:32:30.187Z,97.20
2023-02-01T10:35:00.627Z,97.00
2023-02-01T10:37:35.094Z,96.00
2023-02-01T10:40:10.904Z,96.40
2023-02-01T10:42:37.819Z,96.20
2023-02-01T10:45:05.572Z,94.50
2023-02-01T10:47:32.416Z,95.10
2023-02-01T10:50:10.559Z,95.00
2023-02-01T10:53:01.155Z,93.90
2023-02-01T10:55:31.020Z,93.60
2023-02-01T10:57:59.719Z,93.20
2023-02-01T11:00:28.076Z,93.30
2023-02-01T11:02:55.676Z,93.20
2023-02-01T11:05:23.291Z,93.30
2023-02-01T11:07:53.490Z,92.90
2023-02-01T11:10:39.420Z,93.30
2023-02-01T11:13:06.895Z,93.50
2023-02-01T11:15:33.660Z,93.50
2023-02-01T11:18:19.832Z,93.20
2023-02-01T11:20:52.951Z,93.10
2023-02-01T11:23:24.071Z,92.50
2023-02-01T11:25:56.990Z,92.70
2023-02-01T11:28:28.618Z,92.70
2023-02-01T11:30:59.503Z,92.20
2023-02-01T11:33:34.981Z,92.70
2023-02-01T11:36:13.047Z,92.90
2023-02-01T11:38:39.942Z,92.80
2023-02-01T11:41:41.105Z,92.30
2023-02-01T11:44:19.505Z,91.90
2023-02-01T11:46:46.417Z,92.40
2023-02-01T11:49:25.240Z,92.60
2023-02-01T11:52:19.366Z,92.80
2023-02-01T11:55:13.520Z,92.20
2023-02-01T11:57:53.874Z,91.80
2023-02-01T12:00:26.641Z,92.20
2023-02-01T12:03:16.019Z,92.20
2023-02-01T12:05:54.354Z,92.20
2023-02-01T12:08:29.300Z,92.30
2023-02-01T12:11:17.433Z,92.30
2023-02-01T12:13:48.094Z,92.50
2023-02-01T12:16:38.696Z,92.40
2023-02-01T12:19:23.201Z,92.60
2023-02-01T12:21:55.891Z,92.20
2023-02-01T12:24:25.511Z,91.80
2023-02-01T12:27:11.233Z,91.40
2023-02-01T12:29:55.356Z,91.50
2023-02-01T12:32:40.970Z,91.50
2023-02-01T12:35:26.689Z,91.50
2023-02-01T12:38:17.709Z,91.60
2023-02-01T12:40:54.213Z,91.30
2023-02-01T12:43:44.641Z,91.40
2023-02-01T12:46:14.711Z,91.20
2023-02-01T12:48:55.737Z,91.00
2023-02-01T12:51:29.264Z,91.40
2023-02-01T12:54:22.009Z,91.40
2023-02-01T12:56:56.208Z,91.30
2023-02-01T12:59:26.119Z,91.90
2023-02-01T13:02:29.719Z,91.10
2023-02-01T13:05:13.669Z,91.20
2023-02-01T13:07:58.123Z,91.10
2023-02-01T13:10:33.912Z,90.90
2023-02-01T13:13:16.996Z,90.50
2023-02-01T13:15:58.293Z,90.70
2023-02-01T13:18:33.258Z,90.60
2023-02-01T13:21:06.849Z,90.30
2023-02-01T13:23:39.759Z,90.30
2023-02-01T13:26:07.007Z,89.00
2023-02-01T13:28:52.929Z,89.20
2023-02-01T13:31:40.596Z,89.70
2023-02-01T13:34:29.508Z,88.30
2023-02-01T13:37:15.208Z,87.20
2023-02-01T13:40:04.149Z,87.00
2023-02-01T13:42:55.478Z,87.40
2023-02-01T13:45:24.686Z,87.90
2023-02-01T13:47:55.986Z,89.60
2023-02-01T13:50:22.959Z,90.00
2023-02-01T13:53:12.815Z,90.00
2023-02-01T13:55:41.829Z,90.60
2023-02-01T13:58:23.201Z,91.80
2023-02-01T14:00:52.243Z,92.50
2023-02-01T14:03:24.100Z,93.40
2023-02-01T14:05:51.125Z,93.80
2023-02-01T14:08:38.663Z,93.80
2023-02-01T14:11:06.286Z,94.60
2023-02-01T14:13:38.857Z,95.00
2023-02-01T14:16:05.850Z,95.50
2023-02-01T14:18:39.031Z,95.40
2023-02-01T14:21:30.608Z,95.50
2023-02-01T14:24:00.558Z,95.90
2023-02-01T14:26:35.165Z,96.00
2023-02-01T14:29:20.747Z,96.20
2023-02-01T14:31:50.828Z,96.30
2023-02-01T14:34:43.948Z,96.90
2023-02-01T14:37:19.345Z,97.60
2023-02-01T14:39:46.195Z,97.90
2023-02-01T14:42:25.752Z,98.20
2023-02-01T14:45:14.296Z,98.70
2023-02-01T14:47:41.209Z,99.40
2023-02-01T14:50:14.029Z,99.70
2023-02-01T14:52:46.650Z,99.90
2023-02-01T14:55:26.121Z,99.90
2023-02-01T14:57:56.684Z,99.90
2023-02-01T15:00:30.429Z,99.90
2023-02-01T15:03:33.457Z,99.90
2023-02-01T15:06:01.799Z,99.90
2023-02-01T15:08:34.770Z,99.90
2023-02-01T15:11:07.589Z,99.90
2023-02-01T15:13:34.529Z,99.90
2023-02-01T15:16:11.164Z,99.90
2023-02-01T15:18:38.781Z,99.90
2023-02-01T15:21:26.436Z,99.90
2023-02-01T15:24:11.930Z,99.90
2023-02-01T15:26:39.126Z,99.90
2023-02-01T15:29:06.075Z,99.90
2023-02-01T15:31:45.632Z,99.90
2023-02-01T15:34:13.106Z,99.90
2023-02-01T15:36:42.484Z,99.90
2023-02-01T15:39:23.712Z,99.90
2023-02-01T15:41:54.248Z,99.90
2023-02-01T15:44:33.369Z,99.90
2023-02-01T15:47:01.077Z,99.90
2023-02-01T15:49:32.736Z,99.90
2023-02-01T15:52:01.903Z,99.90
2023-02-01T15:54:46.901Z,99.90
2023-02-01T15:57:31.253Z,99.90
2023-02-01T16:00:08.562Z,99.90
2023-02-01T16:02:52.368Z,99.90
2023-02-01T16:05:38.426Z,99.90
2023-02-01T16:08:13.911Z,99.90
2023-02-01T16:10:50.122Z,99.90
2023-02-01T16:13:18.509Z,99.90
2023-02-01T16:15:45.675Z,99.90
2023-02-01T16:18:13.668Z,99.90
2023-02-01T16:20:42.746Z,99.90
2023-02-01T16:23:11.269Z,99.90
2023-02-01T16:25:39.276Z,99.90
2023-02-01T16:28:06.696Z,99.90
2023-02-01T16:30:33.987Z,99.90
2023-02-01T16:33:06.429Z,99.90
2023-02-01T16:35:39.001Z,99.90
2023-02-01T16:38:13.290Z,99.90
2023-02-01T16:40:41.687Z,99.90
2023-02-01T16:43:22.767Z,99.90
2023-02-01T16:45:50.625Z,99.90
2023-02-01T16:48:22.406Z,99.90
2023-02-01T16:50:53.257Z,99.90
2023-02-01T16:53:21.598Z,99.90
2023-02-01T16:55:50.577Z,99.90
2023-02-01T16:58:20.005Z,99.90
2023-02-01T17:00:50.482Z,99.90
2023-02-01T17:03:18.179Z,99.90
2023-02-01T17:05:52.796Z,99.90
2023-02-01T17:08:28.706Z,99.90
2023-02-01T17:10:55.676Z,99.90
2023-02-01T17:13:22.902Z,99.90
2023-02-01T17:15:57.559Z,99.90
2023-02-01T17:18:26.195Z,99.90
2023-02-01T17:20:53.060Z,99.90
2023-02-01T17:23:20.900Z,99.90
2023-02-01T17:25:48.732Z,99.90
2023-02-01T17:28:15.751Z,99.90
2023-02-01T17:30:43.052Z,99.90
2023-02-01T17:33:22.204Z,99.90
2023-02-01T17:35:50.087Z,99.90
2023-02-01T17:38:17.499Z,99.90
2023-02-01T17:40:44.572Z,99.90
2023-02-01T17:43:21.702Z,99.90
2023-02-01T17:46:02.495Z,99.90
2023-02-01T17:48:29.569Z,99.90
2023-02-01T17:50:58.803Z,99.90
2023-02-01T17:53:29.255Z,99.90
2023-02-01T17:55:58.320Z,99.90
2023-02-01T17:58:26.497Z,99.90
2023-02-01T18:00:56.893Z,99.90
2023-02-01T18:03:27.116Z,99.90
2023-02-01T18:05:55.838Z,99.90
2023-02-01T18:08:25.112Z,99.90
2023-02-01T18:10:55.140Z,99.90
2023-02-01T18:13:22.429Z,99.90
2023-02-01T18:15:49.256Z,99.90
2023-02-01T18:18:16.186Z,99.90
2023-02-01T18:20:45.096Z,99.90
2023-02-01T18:23:16.708Z,99.90
2023-02-01T18:25:43.833Z,99.90
2023-02-01T18:28:10.611Z,99.90
2023-02-01T18:30:37.854Z,99.90
2023-02-01T18:33:13.561Z,99.90
2023-02-01T18:35:41.330Z,99.90
2023-02-01T18:38:08.839Z,99.90
2023-02-01T18:40:52.019Z,99.90
2023-02-01T18:43:19.634Z,99.90
2023-02-01T18:45:47.637Z,99.90
2023-02-01T18:48:19.547Z,99.90
2023-02-01T18:50:47.478Z,99.90
2023-02-01T18:53:15.849Z,99.90
2023-02-01T18:55:42.977Z,99.90
2023-02-01T18:58:13.348Z,99.90
2023-02-01T19:00:40.502Z,99.90
2023-02-01T19:03:12.734Z,99.90
2023-02-01T19:05:39.847Z,99.90
2023-02-01T19:08:07.214Z,99.90
2023-02-01T19:10:36.193Z,99.90
2023-02-01T19:13:02.948Z,99.90
2023-02-01T19:15:30.016Z,99.90
2023-02-01T19:18:00.305Z,99.90
2023-02-01T19:20:29.304Z,99.90
2023-02-01T19:22:56.059Z,99.90
2023-02-01T19:25:25.689Z,99.90
2023-02-01T19:27:54.012Z,99.90
2023-02-01T19:30:22.105Z,99.90
2023-02-01T19:32:49.538Z,99.90
2023-02-01T19:35:19.495Z,99.90
2023-02-01T19:37:47.660Z,99.90
2023-02-01T19:40:19.469Z,99.90
2023-02-01T19:42:47.182Z,99.90
2023-02-01T19:45:15.244Z,99.90
2023-02-01T19:47:42.593Z,99.90
2023-02-01T19:50:15.551Z,99.90
2023-02-01T19:52:42.419Z,99.90
2023-02-01T19:55:09.524Z,99.90
2023-02-01T19:57:37.045Z,99.90
2023-02-01T20:00:06.288Z,99.90
2023-02-01T20:02:32.495Z,99.90
2023-02-01T20:04:59.273Z,99.90
2023-02-01T20:07:26.419Z,99.90
2023-02-01T20:09:53.270Z,99.90
2023-02-01T20:12:20.177Z,99.90
2023-02-01T20:14:47.002Z,99.90
2023-02-01T20:17:17.983Z,99.90
2023-02-01T20:19:44.821Z,99.90
2023-02-01T20:22:11.843Z,99.90
2023-02-01T20:24:38.859Z,99.90
2023-02-01T20:27:10.142Z,99.90
2023-02-01T20:29:37.036Z,99.90
2023-02-01T20:32:04.111Z,99.90
2023-02-01T20:34:31.052Z,99.90
2023-02-01T20:36:57.956Z,99.90
2023-02-01T20:39:24.888Z,99.90
2023-02-01T20:41:51.651Z,99.90
2023-02-01T20:44:18.830Z,99.90
2023-02-01T20:46:45.696Z,99.90
2023-02-01T20:49:12.492Z,99.90
2023-02-01T20:51:39.358Z,99.90
2023-02-01T20:54:06.289Z,99.90
2023-02-01T20:56:33.267Z,99.90
2023-02-01T20:59:03.157Z,99.90
2023-02-01T21:01:31.021Z,99.90
2023-02-01T21:03:58.015Z,99.90
2023-02-01T21:06:24.863Z,99.90
2023-02-01T21:08:51.684Z,99.90
2023-02-01T21:11:18.544Z,99.90
2023-02-01T21:13:51.933Z,99.90
2023-02-01T21:16:21.815Z,99.90
2023-02-01T21:18:53.542Z,99.90
2023-02-01T21:21:21.050Z,99.90
2023-02-01T21:23:52.790Z,99.90
2023-02-01T21:26:24.398Z,99.90
2023-02-01T21:28:53.252Z,99.90
2023-02-01T21:31:22.293Z,99.90
2023-02-01T21:33:52.674Z,99.90
2023-02-01T21:36:20.241Z,99.90
2023-02-01T21:38:52.408Z,99.90
2023-02-01T21:41:40.746Z,99.90
2023-02-01T21:44:09.426Z,99.90
2023-02-01T21:46:36.206Z,99.90
2023-02-01T21:49:05.823Z,99.90
2023-02-01T21:51:37.795Z,99.90
2023-02-01T21:54:06.266Z,99.90
2023-02-01T21:56:33.282Z,99.90
2023-02-01T21:59:00.186Z,99.90
2023-02-01T22:01:27.255Z,99.90
2023-02-01T22:03:54.431Z,99.90
2023-02-01T22:06:32.584Z,99.90
2023-02-01T22:08:59.787Z,99.90
2023-02-01T22:11:27.249Z,99.90
2023-02-01T22:13:54.504Z,99.90
2023-02-01T22:16:21.870Z,99.90
2023-02-01T22:18:52.693Z,99.90
2023-02-01T22:21:20.835Z,99.90
2023-02-01T22:23:54.122Z,99.90
2023-02-01T22:26:22.475Z,99.90
2023-02-01T22:28:49.932Z,99.90
2023-02-01T22:31:17.740Z,99.90
2023-02-01T22:33:49.336Z,99.90
2023-02-01T22:36:17.631Z,99.90
2023-02-01T22:38:46.094Z,99.90
2023-02-01T22:41:13.413Z,99.90
2023-02-01T22:43:40.611Z,99.90
2023-02-01T22:46:12.096Z,99.90
2023-02-01T22:48:40.723Z,99.90
2023-02-01T22:51:11.370Z,99.90
2023-02-01T22:53:38.158Z,99.90
2023-02-01T22:56:06.866Z,99.90
2023-02-01T22:58:37.577Z,99.90
2023-02-01T23:01:12.189Z,99.90
2023-02-01T23:03:39.861Z,99.90
2023-02-01T23:06:08.506Z,99.90
2023-02-01T23:08:36.135Z,99.90
2023-02-01T23:11:06.320Z,99.90
2023-02-01T23:13:34.486Z,99.90
2023-02-01T23:16:10.774Z,99.90
2023-02-01T23:18:38.680Z,99.90
2023-02-01T23:21:11.157Z,99.90
2023-02-01T23:23:38.279Z,99.90
2023-02-01T23:26:05.451Z,99.90
2023-02-01T23:28:32.395Z,99.90
2023-02-01T23:30:59.367Z,99.90
2023-02-01T23:33:27.614Z,99.90
2023-02-01T23:35:59.584Z,99.90
2023-02-01T23:38:27.458Z,99.90
2023-02-01T23:40:58.959Z,99.90
2023-02-01T23:43:45.172Z,99.90
2023-02-01T23:46:13.355Z,99.90
2023-02-01T23:48:40.183Z,99.90
2023-02-01T23:51:07.192Z,99.90
2023-02-01T23:53:34.346Z,99.90
2023-02-01T23:56:01.845Z,99.90
2023-02-01T23:58:28.905Z,99.90
